sensor_id;sensor_type;location;lat;lon;timestamp;P1;durP1;ratioP1;P2;durP2;ratioP2
79664;SDS011;69132;44.014;20.918;2023-05-23T00:01:54;10.60;;;6.30;;
79664;SDS011;69132;44.014;20.918;2023-05-23T00:04:22;6.65;;;5.93;;
79664;SDS011;69132;44.014;20.918;2023-05-23T00:06:51;6.82;;;5.55;;
79664;SDS011;69132;44.014;20.918;2023-05-23T00:09:18;6.90;;;5.82;;
79664;SDS011;69132;44.014;20.918;2023-05-23T00:11:44;8.68;;;6.28;;
79664;SDS011;69132;44.014;20.918;2023-05-23T00:14:11;9.68;;;6.50;;
79664;SDS011;69132;44.014;20.918;2023-05-23T00:16:41;8.85;;;6.43;;
79664;SDS011;69132;44.014;20.918;2023-05-23T00:19:09;6.80;;;6.20;;
79664;SDS011;69132;44.014;20.918;2023-05-23T00:21:35;6.18;;;5.55;;
79664;SDS011;69132;44.014;20.918;2023-05-23T00:24:04;8.48;;;6.63;;
79664;SDS011;69132;44.014;20.918;2023-05-23T00:26:31;9.40;;;6.85;;
79664;SDS011;69132;44.014;20.918;2023-05-23T00:28:58;6.97;;;6.30;;
79664;SDS011;69132;44.014;20.918;2023-05-23T00:31:24;8.13;;;6.78;;
79664;SDS011;69132;44.014;20.918;2023-05-23T00:33:50;7.72;;;6.95;;
79664;SDS011;69132;44.014;20.918;2023-05-23T00:36:16;7.43;;;6.50;;
79664;SDS011;69132;44.014;20.918;2023-05-23T00:38:42;8.27;;;7.32;;
79664;SDS011;69132;44.014;20.918;2023-05-23T00:41:11;11.95;;;7.22;;
79664;SDS011;69132;44.014;20.918;2023-05-23T00:43:37;8.68;;;7.32;;
79664;SDS011;69132;44.014;20.918;2023-05-23T00:46:03;8.02;;;6.60;;
79664;SDS011;69132;44.014;20.918;2023-05-23T00:48:30;9.32;;;7.10;;
79664;SDS011;69132;44.014;20.918;2023-05-23T00:50:56;8.32;;;7.53;;
79664;SDS011;69132;44.014;20.918;2023-05-23T00:53:22;8.95;;;7.45;;
79664;SDS011;69132;44.014;20.918;2023-05-23T00:55:48;10.95;;;7.68;;
79664;SDS011;69132;44.014;20.918;2023-05-23T00:58:15;9.18;;;6.95;;
79664;SDS011;69132;44.014;20.918;2023-05-23T01:00:42;8.18;;;6.85;;
79664;SDS011;69132;44.014;20.918;2023-05-23T01:03:13;7.63;;;6.68;;
79664;SDS011;69132;44.014;20.918;2023-05-23T01:05:42;10.40;;;7.55;;
79664;SDS011;69132;44.014;20.918;2023-05-23T01:08:08;10.30;;;7.88;;
79664;SDS011;69132;44.014;20.918;2023-05-23T01:10:36;9.20;;;8.10;;
79664;SDS011;69132;44.014;20.918;2023-05-23T01:13:09;10.57;;;8.07;;
79664;SDS011;69132;44.014;20.918;2023-05-23T01:15:41;9.95;;;7.20;;
79664;SDS011;69132;44.014;20.918;2023-05-23T01:20:37;7.85;;;6.97;;
79664;SDS011;69132;44.014;20.918;2023-05-23T01:26:10;10.27;;;7.45;;
79664;SDS011;69132;44.014;20.918;2023-05-23T01:31:04;9.18;;;7.38;;
79664;SDS011;69132;44.014;20.918;2023-05-23T01:33:31;9.57;;;7.53;;
79664;SDS011;69132;44.014;20.918;2023-05-23T01:36:00;9.35;;;7.00;;
79664;SDS011;69132;44.014;20.918;2023-05-23T01:38:27;8.88;;;7.30;;
79664;SDS011;69132;44.014;20.918;2023-05-23T01:40:53;10.55;;;7.07;;
79664;SDS011;69132;44.014;20.918;2023-05-23T01:43:20;9.27;;;6.85;;
79664;SDS011;69132;44.014;20.918;2023-05-23T01:45:46;8.20;;;6.90;;
79664;SDS011;69132;44.014;20.918;2023-05-23T01:48:12;7.40;;;6.70;;
79664;SDS011;69132;44.014;20.918;2023-05-23T01:50:40;7.55;;;6.85;;
79664;SDS011;69132;44.014;20.918;2023-05-23T01:53:09;8.88;;;6.72;;
79664;SDS011;69132;44.014;20.918;2023-05-23T01:55:37;7.53;;;6.70;;
79664;SDS011;69132;44.014;20.918;2023-05-23T01:58:04;9.63;;;7.15;;
79664;SDS011;69132;44.014;20.918;2023-05-23T02:00:30;10.25;;;8.00;;
79664;SDS011;69132;44.014;20.918;2023-05-23T02:02:56;8.77;;;7.63;;
79664;SDS011;69132;44.014;20.918;2023-05-23T02:05:24;8.32;;;7.13;;
79664;SDS011;69132;44.014;20.918;2023-05-23T02:07:51;10.93;;;7.70;;
79664;SDS011;69132;44.014;20.918;2023-05-23T02:10:17;9.02;;;7.57;;
79664;SDS011;69132;44.014;20.918;2023-05-23T02:12:44;8.55;;;7.65;;
79664;SDS011;69132;44.014;20.918;2023-05-23T02:15:11;9.48;;;8.57;;
79664;SDS011;69132;44.014;20.918;2023-05-23T02:17:37;9.13;;;8.20;;
79664;SDS011;69132;44.014;20.918;2023-05-23T02:20:05;9.18;;;8.20;;
79664;SDS011;69132;44.014;20.918;2023-05-23T02:22:32;10.15;;;8.65;;
79664;SDS011;69132;44.014;20.918;2023-05-23T02:24:58;11.63;;;8.98;;
79664;SDS011;69132;44.014;20.918;2023-05-23T02:27:25;10.68;;;8.90;;
79664;SDS011;69132;44.014;20.918;2023-05-23T02:29:51;14.35;;;11.77;;
79664;SDS011;69132;44.014;20.918;2023-05-23T02:32:17;10.85;;;8.50;;
79664;SDS011;69132;44.014;20.918;2023-05-23T02:34:43;12.35;;;10.55;;
79664;SDS011;69132;44.014;20.918;2023-05-23T02:37:15;14.27;;;12.82;;
79664;SDS011;69132;44.014;20.918;2023-05-23T02:39:42;10.65;;;8.93;;
79664;SDS011;69132;44.014;20.918;2023-05-23T02:42:08;10.30;;;8.32;;
79664;SDS011;69132;44.014;20.918;2023-05-23T02:44:34;9.32;;;7.63;;
79664;SDS011;69132;44.014;20.918;2023-05-23T02:47:00;9.13;;;7.90;;
79664;SDS011;69132;44.014;20.918;2023-05-23T02:49:26;8.55;;;7.38;;
79664;SDS011;69132;44.014;20.918;2023-05-23T02:51:53;8.30;;;7.40;;
79664;SDS011;69132;44.014;20.918;2023-05-23T02:54:19;10.65;;;8.38;;
79664;SDS011;69132;44.014;20.918;2023-05-23T02:56:45;9.70;;;7.93;;
79664;SDS011;69132;44.014;20.918;2023-05-23T02:59:11;9.60;;;7.75;;
79664;SDS011;69132;44.014;20.918;2023-05-23T03:01:38;9.60;;;8.60;;
79664;SDS011;69132;44.014;20.918;2023-05-23T03:04:05;11.52;;;8.50;;
79664;SDS011;69132;44.014;20.918;2023-05-23T03:06:31;9.52;;;8.23;;
79664;SDS011;69132;44.014;20.918;2023-05-23T03:08:58;12.13;;;8.00;;
79664;SDS011;69132;44.014;20.918;2023-05-23T03:11:24;12.00;;;8.18;;
79664;SDS011;69132;44.014;20.918;2023-05-23T03:13:52;13.73;;;9.10;;
79664;SDS011;69132;44.014;20.918;2023-05-23T03:16:18;9.98;;;8.15;;
79664;SDS011;69132;44.014;20.918;2023-05-23T03:18:44;9.13;;;7.80;;
79664;SDS011;69132;44.014;20.918;2023-05-23T03:21:10;15.77;;;10.38;;
79664;SDS011;69132;44.014;20.918;2023-05-23T03:23:37;10.13;;;8.05;;
79664;SDS011;69132;44.014;20.918;2023-05-23T03:26:03;11.25;;;8.27;;
79664;SDS011;69132;44.014;20.918;2023-05-23T03:28:30;11.43;;;7.63;;
79664;SDS011;69132;44.014;20.918;2023-05-23T03:30:57;9.95;;;7.93;;
79664;SDS011;69132;44.014;20.918;2023-05-23T03:33:23;14.27;;;8.70;;
79664;SDS011;69132;44.014;20.918;2023-05-23T03:35:49;10.85;;;7.55;;
79664;SDS011;69132;44.014;20.918;2023-05-23T03:38:16;8.90;;;8.00;;
79664;SDS011;69132;44.014;20.918;2023-05-23T03:40:42;9.65;;;7.88;;
79664;SDS011;69132;44.014;20.918;2023-05-23T03:43:08;12.82;;;8.13;;
79664;SDS011;69132;44.014;20.918;2023-05-23T03:45:34;10.70;;;8.23;;
79664;SDS011;69132;44.014;20.918;2023-05-23T03:48:01;14.70;;;9.77;;
79664;SDS011;69132;44.014;20.918;2023-05-23T03:50:27;12.85;;;8.35;;
79664;SDS011;69132;44.014;20.918;2023-05-23T03:52:53;9.48;;;8.32;;
79664;SDS011;69132;44.014;20.918;2023-05-23T03:55:23;11.30;;;8.30;;
79664;SDS011;69132;44.014;20.918;2023-05-23T03:57:50;12.70;;;8.45;;
79664;SDS011;69132;44.014;20.918;2023-05-23T04:00:16;10.18;;;8.38;;
79664;SDS011;69132;44.014;20.918;2023-05-23T04:02:43;10.10;;;8.02;;
79664;SDS011;69132;44.014;20.918;2023-05-23T04:05:11;11.87;;;8.80;;
79664;SDS011;69132;44.014;20.918;2023-05-23T04:07:37;12.40;;;9.10;;
79664;SDS011;69132;44.014;20.918;2023-05-23T04:10:04;10.18;;;8.75;;
79664;SDS011;69132;44.014;20.918;2023-05-23T04:12:30;11.82;;;10.18;;
79664;SDS011;69132;44.014;20.918;2023-05-23T04:14:56;11.43;;;8.10;;
79664;SDS011;69132;44.014;20.918;2023-05-23T04:17:23;10.60;;;8.85;;
79664;SDS011;69132;44.014;20.918;2023-05-23T04:19:50;9.77;;;8.35;;
79664;SDS011;69132;44.014;20.918;2023-05-23T04:22:17;10.77;;;8.73;;
79664;SDS011;69132;44.014;20.918;2023-05-23T04:24:43;12.40;;;9.02;;
79664;SDS011;69132;44.014;20.918;2023-05-23T04:27:09;11.20;;;9.35;;
79664;SDS011;69132;44.014;20.918;2023-05-23T04:29:37;9.55;;;8.57;;
79664;SDS011;69132;44.014;20.918;2023-05-23T04:32:04;10.43;;;9.07;;
79664;SDS011;69132;44.014;20.918;2023-05-23T04:34:30;12.02;;;9.25;;
79664;SDS011;69132;44.014;20.918;2023-05-23T04:37:01;16.52;;;8.60;;
79664;SDS011;69132;44.014;20.918;2023-05-23T04:39:27;14.18;;;9.43;;
79664;SDS011;69132;44.014;20.918;2023-05-23T04:41:55;12.75;;;10.45;;
79664;SDS011;69132;44.014;20.918;2023-05-23T04:44:22;10.75;;;9.05;;
79664;SDS011;69132;44.014;20.918;2023-05-23T04:46:48;15.13;;;9.10;;
79664;SDS011;69132;44.014;20.918;2023-05-23T04:49:14;14.23;;;8.70;;
79664;SDS011;69132;44.014;20.918;2023-05-23T04:51:41;11.57;;;8.70;;
79664;SDS011;69132;44.014;20.918;2023-05-23T04:54:07;13.05;;;8.88;;
79664;SDS011;69132;44.014;20.918;2023-05-23T04:56:34;13.43;;;9.50;;
79664;SDS011;69132;44.014;20.918;2023-05-23T04:59:01;19.40;;;10.38;;
79664;SDS011;69132;44.014;20.918;2023-05-23T05:01:29;14.07;;;9.02;;
79664;SDS011;69132;44.014;20.918;2023-05-23T05:03:56;11.07;;;8.05;;
79664;SDS011;69132;44.014;20.918;2023-05-23T05:06:22;9.32;;;8.30;;
79664;SDS011;69132;44.014;20.918;2023-05-23T05:08:48;12.90;;;9.05;;
79664;SDS011;69132;44.014;20.918;2023-05-23T05:11:14;13.07;;;9.13;;
79664;SDS011;69132;44.014;20.918;2023-05-23T05:13:41;12.27;;;9.23;;
79664;SDS011;69132;44.014;20.918;2023-05-23T05:16:07;11.82;;;8.88;;
79664;SDS011;69132;44.014;20.918;2023-05-23T05:18:33;10.48;;;8.57;;
79664;SDS011;69132;44.014;20.918;2023-05-23T05:21:02;12.85;;;8.32;;
79664;SDS011;69132;44.014;20.918;2023-05-23T05:23:29;13.38;;;9.80;;
79664;SDS011;69132;44.014;20.918;2023-05-23T05:25:55;12.13;;;9.10;;
79664;SDS011;69132;44.014;20.918;2023-05-23T05:28:22;13.10;;;9.15;;
79664;SDS011;69132;44.014;20.918;2023-05-23T05:30:48;11.05;;;8.23;;
79664;SDS011;69132;44.014;20.918;2023-05-23T05:33:18;10.95;;;9.00;;
79664;SDS011;69132;44.014;20.918;2023-05-23T05:35:45;10.95;;;9.02;;
79664;SDS011;69132;44.014;20.918;2023-05-23T05:38:11;11.63;;;9.80;;
79664;SDS011;69132;44.014;20.918;2023-05-23T05:40:37;17.10;;;9.73;;
79664;SDS011;69132;44.014;20.918;2023-05-23T05:43:04;16.13;;;9.48;;
79664;SDS011;69132;44.014;20.918;2023-05-23T05:45:30;16.38;;;9.95;;
79664;SDS011;69132;44.014;20.918;2023-05-23T05:47:57;14.80;;;9.38;;
79664;SDS011;69132;44.014;20.918;2023-05-23T05:50:23;13.55;;;9.68;;
79664;SDS011;69132;44.014;20.918;2023-05-23T05:52:49;12.93;;;9.15;;
79664;SDS011;69132;44.014;20.918;2023-05-23T05:55:15;12.15;;;7.93;;
79664;SDS011;69132;44.014;20.918;2023-05-23T05:57:41;13.75;;;8.60;;
79664;SDS011;69132;44.014;20.918;2023-05-23T06:00:13;11.18;;;7.88;;
79664;SDS011;69132;44.014;20.918;2023-05-23T06:02:40;12.07;;;8.38;;
79664;SDS011;69132;44.014;20.918;2023-05-23T06:05:08;13.13;;;9.20;;
79664;SDS011;69132;44.014;20.918;2023-05-23T06:07:39;16.02;;;8.85;;
79664;SDS011;69132;44.014;20.918;2023-05-23T06:10:06;14.35;;;10.05;;
79664;SDS011;69132;44.014;20.918;2023-05-23T06:12:33;10.75;;;8.32;;
79664;SDS011;69132;44.014;20.918;2023-05-23T06:15:00;10.23;;;8.38;;
79664;SDS011;69132;44.014;20.918;2023-05-23T06:17:26;11.40;;;8.95;;
79664;SDS011;69132;44.014;20.918;2023-05-23T06:19:52;11.48;;;8.48;;
79664;SDS011;69132;44.014;20.918;2023-05-23T06:22:19;12.35;;;7.40;;
79664;SDS011;69132;44.014;20.918;2023-05-23T06:24:48;12.48;;;7.70;;
79664;SDS011;69132;44.014;20.918;2023-05-23T06:27:14;9.55;;;7.57;;
79664;SDS011;69132;44.014;20.918;2023-05-23T06:29:40;13.40;;;8.35;;
79664;SDS011;69132;44.014;20.918;2023-05-23T06:32:06;12.77;;;7.22;;
79664;SDS011;69132;44.014;20.918;2023-05-23T06:34:32;11.65;;;7.88;;
79664;SDS011;69132;44.014;20.918;2023-05-23T06:36:59;9.43;;;6.53;;
79664;SDS011;69132;44.014;20.918;2023-05-23T06:39:25;8.90;;;7.28;;
79664;SDS011;69132;44.014;20.918;2023-05-23T06:41:52;12.57;;;7.30;;
79664;SDS011;69132;44.014;20.918;2023-05-23T06:44:19;11.38;;;6.85;;
79664;SDS011;69132;44.014;20.918;2023-05-23T06:46:45;7.88;;;6.00;;
79664;SDS011;69132;44.014;20.918;2023-05-23T06:49:11;14.98;;;7.70;;
79664;SDS011;69132;44.014;20.918;2023-05-23T06:51:37;10.63;;;6.07;;
79664;SDS011;69132;44.014;20.918;2023-05-23T06:54:04;8.52;;;5.95;;
79664;SDS011;69132;44.014;20.918;2023-05-23T06:56:31;8.00;;;5.38;;
79664;SDS011;69132;44.014;20.918;2023-05-23T06:58:57;7.67;;;6.03;;
79664;SDS011;69132;44.014;20.918;2023-05-23T07:01:23;10.40;;;8.00;;
79664;SDS011;69132;44.014;20.918;2023-05-23T07:03:50;9.00;;;5.68;;
79664;SDS011;69132;44.014;20.918;2023-05-23T07:06:16;6.82;;;5.97;;
79664;SDS011;69132;44.014;20.918;2023-05-23T07:08:43;6.50;;;5.03;;
79664;SDS011;69132;44.014;20.918;2023-05-23T07:13:40;7.00;;;5.72;;
79664;SDS011;69132;44.014;20.918;2023-05-23T07:16:06;6.45;;;5.75;;
79664;SDS011;69132;44.014;20.918;2023-05-23T07:18:42;8.13;;;5.60;;
79664;SDS011;69132;44.014;20.918;2023-05-23T07:21:08;8.15;;;5.93;;
79664;SDS011;69132;44.014;20.918;2023-05-23T07:23:39;10.00;;;6.55;;
79664;SDS011;69132;44.014;20.918;2023-05-23T07:26:06;6.93;;;5.43;;
79664;SDS011;69132;44.014;20.918;2023-05-23T07:28:34;6.93;;;5.68;;
79664;SDS011;69132;44.014;20.918;2023-05-23T07:31:01;7.30;;;5.38;;
79664;SDS011;69132;44.014;20.918;2023-05-23T07:33:28;6.40;;;5.80;;
79664;SDS011;69132;44.014;20.918;2023-05-23T07:35:54;11.43;;;6.40;;
79664;SDS011;69132;44.014;20.918;2023-05-23T07:38:21;7.97;;;5.63;;
79664;SDS011;69132;44.014;20.918;2023-05-23T07:40:50;6.13;;;5.45;;
79664;SDS011;69132;44.014;20.918;2023-05-23T07:43:16;6.10;;;5.45;;
79664;SDS011;69132;44.014;20.918;2023-05-23T07:45:42;6.30;;;4.88;;
79664;SDS011;69132;44.014;20.918;2023-05-23T07:48:08;6.90;;;5.32;;
79664;SDS011;69132;44.014;20.918;2023-05-23T07:50:36;8.20;;;5.27;;
79664;SDS011;69132;44.014;20.918;2023-05-23T07:53:03;11.60;;;6.07;;
79664;SDS011;69132;44.014;20.918;2023-05-23T07:55:30;6.70;;;4.53;;
79664;SDS011;69132;44.014;20.918;2023-05-23T07:57:56;5.20;;;4.72;;
79664;SDS011;69132;44.014;20.918;2023-05-23T08:00:22;8.10;;;5.40;;
79664;SDS011;69132;44.014;20.918;2023-05-23T08:02:48;9.00;;;5.57;;
79664;SDS011;69132;44.014;20.918;2023-05-23T08:05:14;6.03;;;4.55;;
79664;SDS011;69132;44.014;20.918;2023-05-23T08:07:43;16.05;;;11.05;;
79664;SDS011;69132;44.014;20.918;2023-05-23T08:10:10;7.55;;;5.43;;
79664;SDS011;69132;44.014;20.918;2023-05-23T08:12:36;6.05;;;4.60;;
79664;SDS011;69132;44.014;20.918;2023-05-23T08:15:02;7.22;;;4.85;;
79664;SDS011;69132;44.014;20.918;2023-05-23T08:17:28;6.45;;;4.70;;
79664;SDS011;69132;44.014;20.918;2023-05-23T08:19:55;5.47;;;4.90;;
79664;SDS011;69132;44.014;20.918;2023-05-23T08:22:21;13.68;;;6.68;;
79664;SDS011;69132;44.014;20.918;2023-05-23T08:24:47;28.48;;;16.48;;
79664;SDS011;69132;44.014;20.918;2023-05-23T08:27:13;10.95;;;6.63;;
79664;SDS011;69132;44.014;20.918;2023-05-23T08:29:39;6.18;;;5.03;;
79664;SDS011;69132;44.014;20.918;2023-05-23T08:32:06;6.40;;;5.18;;
79664;SDS011;69132;44.014;20.918;2023-05-23T08:34:33;8.95;;;4.55;;
79664;SDS011;69132;44.014;20.918;2023-05-23T08:36:59;5.88;;;4.80;;
79664;SDS011;69132;44.014;20.918;2023-05-23T08:39:26;7.22;;;5.38;;
79664;SDS011;69132;44.014;20.918;2023-05-23T08:41:52;5.15;;;4.50;;
79664;SDS011;69132;44.014;20.918;2023-05-23T08:44:18;6.28;;;4.60;;
79664;SDS011;69132;44.014;20.918;2023-05-23T08:46:45;5.25;;;4.50;;
79664;SDS011;69132;44.014;20.918;2023-05-23T08:49:13;6.70;;;4.63;;
79664;SDS011;69132;44.014;20.918;2023-05-23T08:51:41;13.20;;;5.27;;
79664;SDS011;69132;44.014;20.918;2023-05-23T08:54:09;7.63;;;5.55;;
79664;SDS011;69132;44.014;20.918;2023-05-23T08:56:38;9.23;;;5.65;;
79664;SDS011;69132;44.014;20.918;2023-05-23T08:59:08;7.07;;;5.82;;
79664;SDS011;69132;44.014;20.918;2023-05-23T09:01:36;11.43;;;5.78;;
79664;SDS011;69132;44.014;20.918;2023-05-23T09:04:04;5.60;;;4.82;;
79664;SDS011;69132;44.014;20.918;2023-05-23T09:06:31;7.90;;;5.00;;
79664;SDS011;69132;44.014;20.918;2023-05-23T09:08:57;6.35;;;5.10;;
79664;SDS011;69132;44.014;20.918;2023-05-23T09:11:23;5.13;;;4.57;;
79664;SDS011;69132;44.014;20.918;2023-05-23T09:13:50;6.32;;;4.55;;
79664;SDS011;69132;44.014;20.918;2023-05-23T09:16:17;5.93;;;4.20;;
79664;SDS011;69132;44.014;20.918;2023-05-23T09:18:43;8.23;;;5.00;;
79664;SDS011;69132;44.014;20.918;2023-05-23T09:21:10;5.57;;;4.45;;
79664;SDS011;69132;44.014;20.918;2023-05-23T09:23:37;5.25;;;4.10;;
79664;SDS011;69132;44.014;20.918;2023-05-23T09:26:05;7.22;;;3.97;;
79664;SDS011;69132;44.014;20.918;2023-05-23T09:28:32;5.18;;;4.18;;
79664;SDS011;69132;44.014;20.918;2023-05-23T09:31:00;5.47;;;4.45;;
79664;SDS011;69132;44.014;20.918;2023-05-23T09:33:42;6.50;;;4.70;;
79664;SDS011;69132;44.014;20.918;2023-05-23T09:36:14;5.93;;;4.10;;
79664;SDS011;69132;44.014;20.918;2023-05-23T09:38:41;6.63;;;4.47;;
79664;SDS011;69132;44.014;20.918;2023-05-23T09:41:07;6.95;;;4.28;;
79664;SDS011;69132;44.014;20.918;2023-05-23T09:43:37;4.85;;;4.28;;
79664;SDS011;69132;44.014;20.918;2023-05-23T09:46:11;6.72;;;4.53;;
79664;SDS011;69132;44.014;20.918;2023-05-23T09:48:38;9.35;;;4.93;;
79664;SDS011;69132;44.014;20.918;2023-05-23T09:51:05;7.85;;;5.45;;
79664;SDS011;69132;44.014;20.918;2023-05-23T09:53:31;5.18;;;4.10;;
79664;SDS011;69132;44.014;20.918;2023-05-23T09:56:03;8.20;;;4.50;;
79664;SDS011;69132;44.014;20.918;2023-05-23T09:58:30;6.65;;;4.78;;
79664;SDS011;69132;44.014;20.918;2023-05-23T10:01:00;5.63;;;4.13;;
79664;SDS011;69132;44.014;20.918;2023-05-23T10:03:33;4.38;;;3.53;;
79664;SDS011;69132;44.014;20.918;2023-05-23T10:06:24;4.47;;;3.20;;
79664;SDS011;69132;44.014;20.918;2023-05-23T10:14:00;6.93;;;4.18;;
79664;SDS011;69132;44.014;20.918;2023-05-23T10:16:33;8.18;;;4.90;;
79664;SDS011;69132;44.014;20.918;2023-05-23T10:19:07;9.55;;;5.55;;
79664;SDS011;69132;44.014;20.918;2023-05-23T10:21:38;7.53;;;5.45;;
79664;SDS011;69132;44.014;20.918;2023-05-23T10:24:06;9.23;;;7.80;;
79664;SDS011;69132;44.014;20.918;2023-05-23T10:26:33;8.30;;;6.35;;
79664;SDS011;69132;44.014;20.918;2023-05-23T10:28:59;7.40;;;4.20;;
79664;SDS011;69132;44.014;20.918;2023-05-23T10:31:26;5.38;;;4.10;;
79664;SDS011;69132;44.014;20.918;2023-05-23T10:34:03;5.63;;;4.28;;
79664;SDS011;69132;44.014;20.918;2023-05-23T10:36:34;6.35;;;3.97;;
79664;SDS011;69132;44.014;20.918;2023-05-23T10:39:05;7.15;;;4.35;;
79664;SDS011;69132;44.014;20.918;2023-05-23T10:41:49;6.25;;;4.93;;
79664;SDS011;69132;44.014;20.918;2023-05-23T10:46:50;7.93;;;3.75;;
79664;SDS011;69132;44.014;20.918;2023-05-23T10:49:17;5.93;;;3.85;;
79664;SDS011;69132;44.014;20.918;2023-05-23T10:51:45;4.90;;;3.42;;
79664;SDS011;69132;44.014;20.918;2023-05-23T10:54:12;5.05;;;4.55;;
79664;SDS011;69132;44.014;20.918;2023-05-23T10:56:38;7.40;;;4.80;;
79664;SDS011;69132;44.014;20.918;2023-05-23T10:59:05;4.70;;;3.95;;
79664;SDS011;69132;44.014;20.918;2023-05-23T11:01:31;5.57;;;3.90;;
79664;SDS011;69132;44.014;20.918;2023-05-23T11:04:04;6.10;;;4.18;;
79664;SDS011;69132;44.014;20.918;2023-05-23T11:06:38;3.58;;;3.25;;
79664;SDS011;69132;44.014;20.918;2023-05-23T11:09:10;4.38;;;3.30;;
79664;SDS011;69132;44.014;20.918;2023-05-23T11:15:05;6.40;;;3.80;;
79664;SDS011;69132;44.014;20.918;2023-05-23T11:19:38;7.95;;;4.20;;
79664;SDS011;69132;44.014;20.918;2023-05-23T11:22:07;4.65;;;4.00;;
79664;SDS011;69132;44.014;20.918;2023-05-23T11:27:12;6.18;;;3.35;;
79664;SDS011;69132;44.014;20.918;2023-05-23T11:29:40;7.28;;;3.67;;
79664;SDS011;69132;44.014;20.918;2023-05-23T11:32:12;5.32;;;3.45;;
79664;SDS011;69132;44.014;20.918;2023-05-23T11:34:38;4.00;;;3.60;;
79664;SDS011;69132;44.014;20.918;2023-05-23T11:37:05;5.05;;;3.65;;
79664;SDS011;69132;44.014;20.918;2023-05-23T11:39:32;7.57;;;3.80;;
79664;SDS011;69132;44.014;20.918;2023-05-23T11:42:01;4.78;;;3.75;;
79664;SDS011;69132;44.014;20.918;2023-05-23T11:44:29;4.22;;;3.08;;
79664;SDS011;69132;44.014;20.918;2023-05-23T11:47:01;5.10;;;3.60;;
79664;SDS011;69132;44.014;20.918;2023-05-23T11:49:30;4.60;;;3.63;;
79664;SDS011;69132;44.014;20.918;2023-05-23T11:51:57;5.00;;;3.67;;
79664;SDS011;69132;44.014;20.918;2023-05-23T11:54:25;14.63;;;4.38;;
79664;SDS011;69132;44.014;20.918;2023-05-23T11:56:51;4.55;;;4.07;;
79664;SDS011;69132;44.014;20.918;2023-05-23T11:59:17;6.05;;;3.90;;
79664;SDS011;69132;44.014;20.918;2023-05-23T12:01:45;4.45;;;3.45;;
79664;SDS011;69132;44.014;20.918;2023-05-23T12:06:40;4.65;;;3.80;;
79664;SDS011;69132;44.014;20.918;2023-05-23T12:09:07;9.75;;;4.40;;
79664;SDS011;69132;44.014;20.918;2023-05-23T12:11:33;5.30;;;4.22;;
79664;SDS011;69132;44.014;20.918;2023-05-23T12:14:00;15.82;;;10.98;;
79664;SDS011;69132;44.014;20.918;2023-05-23T12:16:30;4.65;;;3.70;;
79664;SDS011;69132;44.014;20.918;2023-05-23T12:18:56;15.90;;;11.73;;
79664;SDS011;69132;44.014;20.918;2023-05-23T12:21:26;8.93;;;4.10;;
79664;SDS011;69132;44.014;20.918;2023-05-23T12:23:52;12.40;;;8.75;;
79664;SDS011;69132;44.014;20.918;2023-05-23T12:26:19;15.18;;;8.73;;
79664;SDS011;69132;44.014;20.918;2023-05-23T12:31:16;5.78;;;5.18;;
79664;SDS011;69132;44.014;20.918;2023-05-23T12:33:44;6.70;;;4.53;;
79664;SDS011;69132;44.014;20.918;2023-05-23T12:36:12;8.10;;;5.97;;
79664;SDS011;69132;44.014;20.918;2023-05-23T12:38:38;9.70;;;5.50;;
79664;SDS011;69132;44.014;20.918;2023-05-23T12:41:11;7.65;;;5.15;;
79664;SDS011;69132;44.014;20.918;2023-05-23T12:43:38;5.47;;;3.97;;
79664;SDS011;69132;44.014;20.918;2023-05-23T12:46:06;5.47;;;3.73;;
79664;SDS011;69132;44.014;20.918;2023-05-23T12:48:33;9.40;;;5.20;;
79664;SDS011;69132;44.014;20.918;2023-05-23T12:50:59;5.53;;;4.88;;
79664;SDS011;69132;44.014;20.918;2023-05-23T12:53:27;9.93;;;5.55;;
79664;SDS011;69132;44.014;20.918;2023-05-23T12:55:53;7.07;;;4.07;;
79664;SDS011;69132;44.014;20.918;2023-05-23T12:58:20;8.20;;;3.90;;
79664;SDS011;69132;44.014;20.918;2023-05-23T13:00:47;6.20;;;4.03;;
79664;SDS011;69132;44.014;20.918;2023-05-23T13:03:13;6.35;;;3.55;;
79664;SDS011;69132;44.014;20.918;2023-05-23T13:05:39;5.35;;;3.92;;
79664;SDS011;69132;44.014;20.918;2023-05-23T13:08:05;6.75;;;3.75;;
79664;SDS011;69132;44.014;20.918;2023-05-23T13:10:32;8.35;;;5.03;;
79664;SDS011;69132;44.014;20.918;2023-05-23T13:12:58;9.23;;;5.30;;
79664;SDS011;69132;44.014;20.918;2023-05-23T13:15:24;8.43;;;4.20;;
79664;SDS011;69132;44.014;20.918;2023-05-23T13:17:50;6.22;;;4.45;;
79664;SDS011;69132;44.014;20.918;2023-05-23T13:20:16;6.28;;;4.43;;
79664;SDS011;69132;44.014;20.918;2023-05-23T13:22:43;4.65;;;3.88;;
79664;SDS011;69132;44.014;20.918;2023-05-23T13:25:09;4.45;;;3.60;;
79664;SDS011;69132;44.014;20.918;2023-05-23T13:27:35;7.65;;;5.80;;
79664;SDS011;69132;44.014;20.918;2023-05-23T13:30:01;5.07;;;4.05;;
79664;SDS011;69132;44.014;20.918;2023-05-23T13:32:28;8.20;;;6.95;;
79664;SDS011;69132;44.014;20.918;2023-05-23T13:34:54;7.78;;;4.95;;
79664;SDS011;69132;44.014;20.918;2023-05-23T13:37:20;3.85;;;3.28;;
79664;SDS011;69132;44.014;20.918;2023-05-23T13:39:46;5.07;;;3.90;;
79664;SDS011;69132;44.014;20.918;2023-05-23T13:42:13;7.78;;;3.97;;
79664;SDS011;69132;44.014;20.918;2023-05-23T13:44:39;4.63;;;4.03;;
79664;SDS011;69132;44.014;20.918;2023-05-23T13:47:11;6.32;;;3.72;;
79664;SDS011;69132;44.014;20.918;2023-05-23T13:49:37;5.35;;;3.95;;
79664;SDS011;69132;44.014;20.918;2023-05-23T13:52:04;7.38;;;4.53;;
79664;SDS011;69132;44.014;20.918;2023-05-23T13:54:30;9.18;;;3.30;;
79664;SDS011;69132;44.014;20.918;2023-05-23T13:56:56;5.05;;;3.45;;
79664;SDS011;69132;44.014;20.918;2023-05-23T13:59:23;5.03;;;4.07;;
79664;SDS011;69132;44.014;20.918;2023-05-23T14:01:49;6.68;;;3.88;;
79664;SDS011;69132;44.014;20.918;2023-05-23T14:04:16;7.10;;;5.20;;
79664;SDS011;69132;44.014;20.918;2023-05-23T14:06:44;10.07;;;7.80;;
79664;SDS011;69132;44.014;20.918;2023-05-23T14:09:11;8.52;;;5.22;;
79664;SDS011;69132;44.014;20.918;2023-05-23T14:11:38;8.65;;;6.75;;
79664;SDS011;69132;44.014;20.918;2023-05-23T14:14:04;4.05;;;3.53;;
79664;SDS011;69132;44.014;20.918;2023-05-23T14:16:30;6.20;;;4.20;;
79664;SDS011;69132;44.014;20.918;2023-05-23T14:18:56;5.45;;;4.10;;
79664;SDS011;69132;44.014;20.918;2023-05-23T14:21:22;5.80;;;4.57;;
79664;SDS011;69132;44.014;20.918;2023-05-23T14:23:48;4.97;;;3.88;;
79664;SDS011;69132;44.014;20.918;2023-05-23T14:26:14;16.25;;;10.48;;
79664;SDS011;69132;44.014;20.918;2023-05-23T14:28:40;13.15;;;8.50;;
79664;SDS011;69132;44.014;20.918;2023-05-23T14:31:06;11.85;;;7.47;;
79664;SDS011;69132;44.014;20.918;2023-05-23T14:33:32;5.03;;;4.50;;
79664;SDS011;69132;44.014;20.918;2023-05-23T14:35:59;4.97;;;3.38;;
79664;SDS011;69132;44.014;20.918;2023-05-23T14:38:27;6.35;;;4.18;;
79664;SDS011;69132;44.014;20.918;2023-05-23T14:40:54;6.30;;;4.57;;
79664;SDS011;69132;44.014;20.918;2023-05-23T14:43:20;4.60;;;3.95;;
79664;SDS011;69132;44.014;20.918;2023-05-23T14:45:46;4.05;;;3.65;;
79664;SDS011;69132;44.014;20.918;2023-05-23T14:48:12;5.57;;;4.47;;
79664;SDS011;69132;44.014;20.918;2023-05-23T14:50:38;4.28;;;3.35;;
79664;SDS011;69132;44.014;20.918;2023-05-23T14:53:04;6.47;;;5.05;;
79664;SDS011;69132;44.014;20.918;2023-05-23T14:55:31;6.27;;;3.87;;
79664;SDS011;69132;44.014;20.918;2023-05-23T14:57:59;5.90;;;5.03;;
79664;SDS011;69132;44.014;20.918;2023-05-23T15:00:26;7.30;;;3.83;;
79664;SDS011;69132;44.014;20.918;2023-05-23T15:02:52;7.47;;;3.55;;